Pagrindinis puslapis
METAR-TAF:

METAR-TAF

Oro uostai :

Maragheh, Iranas

platuma: 37-20-55N, ilguma: 046-07-35E, Aukštis: 1340 m

Dabartinis oras

Ataskaita buvo paskelbta 32 minutes, ne 09:00 UTC
Vėjas 8 kt iš Rytų
Temperatūra 28°C
Drėgmė 30%
Slėgis 1018 hPa
Matomumas 10 km arba daugiau
Mažai debesys ne aukštis 3500 ft

METAR: OITM 210900Z 10008KT 9999 FEW035 28/09 Q1018

Laikas: 13:02 (09:32 UTC)


TAF: trūkstamas

Orai ataskaitas ir orų prognozės (METAR, TAF).

turimą stotys yra geltonos ir raudonos taškus žemėlapyje.

Perkelti pele per norėdami pamatyti stoties vardą.

Tada spustelėkite, norėdami matyti oro stebėjimo ir prognozės.

Norėdami pakeisti žemėlapį: spustelėkite ant žalios mygtukų su juodo kryžiaus žemyn,; žalią mygtuką su brūkšneliu, jei norite nutolinti; arba žalių rodyklių gretimoms žemėlapius.


METAR-TAF: